createdAt,value
2018-11-06T00:00:27.441Z,34.40
2018-11-06T00:03:01.556Z,29.73
2018-11-06T00:05:30.423Z,30.23
2018-11-06T00:07:59.238Z,30.53
2018-11-06T00:10:28.201Z,33.43
2018-11-06T00:12:57.023Z,33.67
2018-11-06T00:15:25.949Z,32.97
2018-11-06T00:17:54.795Z,29.87
2018-11-06T00:20:23.636Z,26.50
2018-11-06T00:22:52.496Z,30.60
2018-11-06T00:25:21.319Z,28.93
2018-11-06T00:27:50.164Z,26.23
2018-11-06T00:30:18.964Z,30.73
2018-11-06T00:32:47.833Z,25.97
2018-11-06T00:35:16.623Z,29.07
2018-11-06T00:37:45.991Z,32.27
2018-11-06T00:40:14.910Z,31.33
2018-11-06T00:42:43.792Z,33.93
2018-11-06T00:45:15.706Z,35.90
2018-11-06T00:47:44.570Z,34.60
2018-11-06T00:50:14.183Z,26.17
2018-11-06T00:52:43.875Z,32.60
2018-11-06T00:55:12.938Z,27.90
2018-11-06T00:57:42.953Z,28.67
2018-11-06T01:00:14.104Z,32.00
2018-11-06T01:02:42.908Z,29.93
2018-11-06T01:05:12.707Z,32.90
2018-11-06T01:07:42.650Z,28.63
2018-11-06T01:10:11.778Z,30.70
2018-11-06T01:12:40.872Z,27.53
2018-11-06T01:15:12.066Z,32.90
2018-11-06T01:17:41.295Z,33.53
2018-11-06T01:20:12.490Z,31.87
2018-11-06T01:22:41.342Z,29.53
2018-11-06T01:25:10.901Z,31.37
2018-11-06T01:27:39.895Z,28.47
2018-11-06T01:30:12.933Z,33.97
2018-11-06T01:32:42.161Z,29.93
2018-11-06T01:35:12.505Z,30.70
2018-11-06T01:37:41.839Z,30.47
2018-11-06T01:40:12.867Z,35.40
2018-11-06T01:42:42.431Z,31.70
2018-11-06T01:45:13.095Z,32.70
2018-11-06T01:47:42.147Z,37.93
2018-11-06T01:50:13.105Z,30.03
2018-11-06T01:52:43.104Z,30.07
2018-11-06T01:55:12.380Z,29.27
2018-11-06T01:57:41.462Z,32.97
2018-11-06T02:00:12.978Z,31.47
2018-11-06T02:02:41.886Z,34.67
2018-11-06T02:05:12.615Z,33.03
2018-11-06T02:07:42.266Z,32.60
2018-11-06T02:10:12.527Z,32.37
2018-11-06T02:12:42.118Z,34.37
2018-11-06T02:15:10.979Z,32.30
2018-11-06T02:17:41.053Z,31.47
2018-11-06T02:20:11.069Z,37.10
2018-11-06T02:22:41.016Z,36.03
2018-11-06T02:25:10.537Z,32.60
2018-11-06T02:27:39.486Z,33.10
2018-11-06T02:30:10.487Z,31.70
2018-11-06T02:32:39.361Z,31.03
2018-11-06T02:35:08.330Z,32.10
2018-11-06T02:37:37.712Z,34.83
2018-11-06T02:40:07.238Z,30.40
2018-11-06T02:42:36.118Z,31.23
2018-11-06T02:45:05.017Z,34.77
2018-11-06T02:47:33.861Z,33.93
2018-11-06T02:50:02.688Z,39.43
2018-11-06T02:52:31.538Z,36.83
2018-11-06T02:55:00.358Z,41.10
2018-11-06T02:57:29.231Z,33.60
2018-11-06T02:59:58.106Z,32.17
2018-11-06T03:02:26.951Z,33.43
2018-11-06T03:04:55.767Z,41.43
2018-11-06T03:07:24.564Z,37.73
2018-11-06T03:09:53.427Z,40.50
2018-11-06T03:12:24.171Z,43.00
2018-11-06T03:14:53.045Z,35.17
2018-11-06T03:17:21.853Z,32.90
2018-11-06T03:19:50.741Z,42.77
2018-11-06T03:22:19.552Z,36.67
2018-11-06T03:24:48.366Z,33.87
2018-11-06T03:27:17.243Z,38.93
2018-11-06T03:29:46.067Z,38.00
2018-11-06T03:32:14.883Z,40.60
2018-11-06T03:34:43.733Z,39.80
2018-11-06T03:37:12.539Z,38.90
2018-11-06T03:39:41.342Z,38.30
2018-11-06T03:42:10.210Z,38.57
2018-11-06T03:44:39.030Z,42.23
2018-11-06T03:47:07.904Z,40.13
2018-11-06T03:49:36.743Z,40.10
2018-11-06T03:52:05.829Z,39.10
2018-11-06T03:54:34.679Z,37.33
2018-11-06T03:57:03.554Z,39.93
2018-11-06T03:59:32.455Z,39.57
2018-11-06T04:02:01.399Z,41.60
2018-11-06T04:04:30.253Z,39.27
2018-11-06T04:06:59.100Z,45.47
2018-11-06T04:09:27.953Z,43.47
2018-11-06T04:11:56.750Z,42.10
2018-11-06T04:14:25.559Z,42.73
2018-11-06T04:16:54.436Z,42.83
2018-11-06T04:19:23.236Z,42.93
2018-11-06T04:21:52.067Z,42.10
2018-11-06T04:24:20.901Z,40.93
2018-11-06T04:26:49.785Z,43.17
2018-11-06T04:29:18.642Z,45.70
2018-11-06T04:31:47.488Z,42.77
2018-11-06T04:34:16.347Z,43.87
2018-11-06T04:36:45.166Z,41.70
2018-11-06T04:39:14.051Z,43.43
2018-11-06T04:41:42.850Z,43.97
2018-11-06T04:44:11.737Z,46.03
2018-11-06T04:46:40.581Z,44.93
2018-11-06T04:49:09.418Z,49.77
2018-11-06T04:51:38.189Z,46.57
2018-11-06T04:54:07.035Z,46.23
2018-11-06T04:56:36.859Z,50.30
2018-11-06T04:59:05.782Z,48.20
2018-11-06T05:01:34.674Z,49.30
2018-11-06T05:04:03.553Z,46.00
2018-11-06T05:06:32.361Z,49.10
2018-11-06T05:09:01.174Z,44.57
2018-11-06T05:11:30.014Z,49.50
2018-11-06T05:13:58.871Z,50.47
2018-11-06T05:16:27.764Z,51.60
2018-11-06T05:18:56.571Z,49.40
2018-11-06T05:21:25.425Z,50.30
2018-11-06T05:23:54.256Z,47.40
2018-11-06T05:26:23.100Z,56.83
2018-11-06T05:28:51.916Z,56.63
2018-11-06T05:31:20.764Z,48.53
2018-11-06T05:33:49.559Z,55.53
2018-11-06T05:36:18.399Z,48.50
2018-11-06T05:38:47.244Z,51.23
2018-11-06T05:41:16.110Z,45.57
2018-11-06T05:43:44.966Z,47.50
2018-11-06T05:46:13.854Z,51.63
2018-11-06T05:48:42.709Z,54.27
2018-11-06T05:51:11.590Z,58.43
2018-11-06T05:53:40.455Z,52.13
2018-11-06T05:56:09.244Z,50.43
2018-11-06T05:58:38.088Z,55.67
2018-11-06T06:01:06.967Z,57.43
2018-11-06T06:03:35.822Z,58.70
2018-11-06T06:06:04.817Z,62.83
2018-11-06T06:08:33.658Z,54.33
2018-11-06T06:11:02.694Z,60.90
2018-11-06T06:13:31.616Z,54.73
2018-11-06T06:16:00.450Z,52.90
2018-11-06T06:18:29.410Z,55.73
2018-11-06T06:20:58.334Z,60.90
2018-11-06T06:23:27.145Z,62.07
2018-11-06T06:25:56.000Z,55.60
2018-11-06T06:28:24.843Z,52.20
2018-11-06T06:30:53.761Z,57.23
2018-11-06T06:33:22.613Z,61.80
2018-11-06T06:35:51.475Z,58.87
2018-11-06T06:38:20.321Z,57.77
2018-11-06T06:40:49.273Z,56.10
2018-11-06T06:43:18.073Z,63.70
2018-11-06T06:45:46.970Z,55.93
2018-11-06T06:48:15.778Z,54.80
2018-11-06T06:50:44.682Z,60.67
2018-11-06T06:53:13.505Z,62.93
2018-11-06T06:55:42.420Z,55.90
2018-11-06T06:58:11.206Z,58.40
2018-11-06T07:00:40.106Z,54.30
2018-11-06T07:03:08.946Z,53.77
2018-11-06T07:05:37.833Z,59.47
2018-11-06T07:08:06.758Z,60.53
2018-11-06T07:10:35.633Z,61.40
2018-11-06T07:13:04.593Z,62.83
2018-11-06T07:15:33.561Z,62.17
2018-11-06T07:18:02.438Z,55.77
2018-11-06T07:20:31.260Z,62.73
2018-11-06T07:23:00.157Z,65.03
2018-11-06T07:25:29.019Z,76.17
2018-11-06T07:27:57.857Z,69.10
2018-11-06T07:30:26.766Z,60.90
2018-11-06T07:32:55.593Z,72.57
2018-11-06T07:35:24.870Z,62.40
2018-11-06T07:37:53.625Z,69.13
2018-11-06T07:40:22.504Z,65.10
2018-11-06T07:42:51.334Z,62.80
2018-11-06T07:45:21.633Z,65.40
2018-11-06T07:47:50.475Z,72.40
2018-11-06T07:50:19.499Z,72.07
2018-11-06T07:52:48.271Z,68.90
2018-11-06T07:55:18.362Z,87.37
2018-11-06T07:57:47.278Z,85.90
2018-11-06T08:00:23.662Z,76.93
2018-11-06T08:02:52.528Z,77.90
2018-11-06T08:05:21.530Z,75.03
2018-11-06T08:07:51.046Z,73.77
2018-11-06T08:10:19.911Z,86.13
2018-11-06T08:12:50.175Z,94.30
2018-11-06T08:15:19.074Z,87.70
2018-11-06T08:17:48.093Z,72.70
2018-11-06T08:20:17.106Z,81.03
2018-11-06T08:22:45.977Z,76.60
2018-11-06T08:25:15.896Z,73.90
2018-11-06T08:27:45.172Z,70.43
2018-11-06T08:30:14.416Z,49.27
2018-11-06T08:32:43.752Z,48.30
2018-11-06T08:35:14.297Z,45.53
2018-11-06T08:37:43.450Z,41.37
2018-11-06T08:40:14.647Z,39.63
2018-11-06T08:42:43.664Z,37.13
2018-11-06T08:45:13.699Z,39.90
2018-11-06T08:47:43.823Z,36.97
2018-11-06T08:50:14.094Z,43.67
2018-11-06T08:52:43.071Z,39.10
2018-11-06T08:55:13.099Z,39.90
2018-11-06T08:57:42.716Z,38.37
2018-11-06T09:00:13.750Z,36.07
2018-11-06T09:02:43.303Z,40.57
2018-11-06T09:05:13.373Z,35.50
2018-11-06T09:07:42.255Z,32.90
2018-11-06T09:10:12.410Z,35.70
2018-11-06T09:12:41.423Z,35.13
2018-11-06T09:15:12.061Z,33.40
2018-11-06T09:17:41.018Z,34.60
2018-11-06T09:20:11.428Z,30.60
2018-11-06T09:22:40.288Z,27.87
2018-11-06T09:25:12.668Z,31.47
2018-11-06T09:27:59.317Z,30.27
2018-11-06T09:30:29.137Z,33.67
2018-11-06T09:32:57.872Z,34.60
2018-11-06T09:35:26.710Z,30.93
2018-11-06T09:37:55.639Z,30.87
2018-11-06T09:40:25.488Z,34.53
2018-11-06T09:42:54.299Z,28.10
2018-11-06T09:45:23.144Z,30.70
2018-11-06T09:47:51.825Z,27.20
2018-11-06T09:50:22.874Z,26.87
2018-11-06T09:52:51.703Z,30.53
2018-11-06T09:55:43.164Z,29.60
2018-11-06T09:58:32.725Z,29.73
2018-11-06T10:01:25.702Z,25.80
2018-11-06T10:04:16.782Z,26.40
2018-11-06T10:06:46.210Z,23.10
2018-11-06T10:09:15.109Z,29.67
2018-11-06T10:11:44.118Z,29.03
2018-11-06T10:14:13.036Z,27.43
2018-11-06T10:16:41.767Z,25.00
2018-11-06T10:19:10.506Z,24.00
2018-11-06T10:21:39.246Z,23.50
2018-11-06T10:24:08.037Z,24.20
2018-11-06T10:26:36.702Z,26.43
2018-11-06T10:29:08.136Z,25.33
2018-11-06T10:31:37.363Z,22.60
2018-11-06T10:34:06.157Z,24.87
2018-11-06T10:36:35.981Z,24.80
2018-11-06T10:39:06.454Z,24.60
2018-11-06T10:41:35.226Z,23.63
2018-11-06T10:44:03.987Z,23.00
2018-11-06T10:46:32.857Z,24.03
2018-11-06T10:49:02.550Z,24.90
2018-11-06T10:51:32.314Z,24.80
2018-11-06T10:54:02.593Z,22.07
2018-11-06T10:56:32.526Z,22.53
2018-11-06T10:59:02.962Z,23.00
2018-11-06T11:01:42.914Z,24.67
2018-11-06T11:04:16.435Z,23.33
2018-11-06T11:06:45.486Z,22.53
2018-11-06T11:09:14.433Z,23.53
2018-11-06T11:11:49.270Z,20.60
2018-11-06T11:14:19.515Z,22.50
2018-11-06T11:16:49.287Z,22.37
2018-11-06T11:19:19.894Z,20.43
2018-11-06T11:21:50.779Z,20.37
2018-11-06T11:24:24.419Z,22.13
2018-11-06T11:26:54.419Z,22.07
2018-11-06T11:29:24.376Z,20.03
2018-11-06T11:31:54.045Z,19.90
2018-11-06T11:34:24.936Z,23.00
2018-11-06T11:36:55.062Z,20.53
2018-11-06T11:39:25.272Z,20.10
2018-11-06T11:41:55.420Z,18.10
2018-11-06T11:44:25.620Z,20.40
2018-11-06T11:46:55.744Z,20.70
2018-11-06T11:49:26.101Z,18.77
2018-11-06T11:51:56.154Z,17.63
2018-11-06T11:54:25.909Z,15.80
2018-11-06T11:56:57.942Z,17.40
2018-11-06T11:59:32.931Z,18.70
2018-11-06T12:02:03.047Z,19.17
2018-11-06T12:04:33.152Z,17.87
2018-11-06T12:07:02.984Z,19.20
2018-11-06T12:09:32.106Z,19.83
2018-11-06T12:12:04.929Z,19.50
2018-11-06T12:14:51.477Z,18.63
2018-11-06T12:17:37.499Z,19.57
2018-11-06T12:20:18.021Z,18.27
2018-11-06T12:22:47.283Z,19.73
2018-11-06T12:25:16.336Z,17.50
2018-11-06T12:27:45.207Z,17.83
2018-11-06T12:30:16.265Z,16.63
2018-11-06T12:32:45.154Z,18.93
2018-11-06T12:35:14.723Z,16.67
2018-11-06T12:37:43.966Z,18.37
2018-11-06T12:40:13.652Z,19.37
2018-11-06T12:42:43.727Z,15.40
2018-11-06T12:45:15.030Z,19.47
2018-11-06T12:47:44.179Z,21.73
2018-11-06T12:50:13.892Z,16.70
2018-11-06T12:52:42.926Z,15.83
2018-11-06T12:55:14.756Z,19.17
2018-11-06T12:57:43.513Z,16.57
2018-11-06T13:00:14.465Z,17.53
2018-11-06T13:02:43.406Z,17.60
2018-11-06T13:05:12.189Z,18.23
2018-11-06T13:07:42.001Z,16.20
2018-11-06T13:10:11.877Z,16.33
2018-11-06T13:12:41.259Z,18.53
2018-11-06T13:15:10.837Z,16.87
2018-11-06T13:17:39.724Z,18.63
2018-11-06T13:20:10.341Z,20.20
2018-11-06T13:22:40.379Z,18.03
2018-11-06T13:25:09.250Z,16.40
2018-11-06T13:27:39.717Z,16.90
2018-11-06T13:30:13.313Z,16.50
2018-11-06T13:32:43.979Z,21.10
2018-11-06T13:35:14.064Z,17.10
2018-11-06T13:37:44.107Z,22.50
2018-11-06T13:40:24.911Z,15.23
2018-11-06T13:42:54.483Z,19.73
2018-11-06T13:45:25.724Z,18.03
2018-11-06T13:47:57.232Z,19.87
2018-11-06T13:50:27.516Z,18.40
2018-11-06T13:52:57.999Z,18.30
2018-11-06T13:55:40.682Z,22.77
2018-11-06T13:58:15.639Z,24.37
2018-11-06T14:00:45.745Z,23.53
2018-11-06T14:03:16.039Z,26.53
2018-11-06T14:05:47.257Z,28.67
2018-11-06T14:08:23.375Z,26.30
2018-11-06T14:11:10.453Z,28.00
2018-11-06T14:13:39.992Z,25.83
2018-11-06T14:16:08.810Z,24.70
2018-11-06T14:18:37.711Z,25.20
2018-11-06T14:21:06.597Z,26.13
2018-11-06T14:23:38.668Z,24.87
2018-11-06T14:26:30.345Z,27.57
2018-11-06T14:29:00.383Z,26.57
2018-11-06T14:31:29.420Z,27.47
2018-11-06T14:34:06.107Z,24.17
2018-11-06T14:36:34.989Z,28.00
2018-11-06T14:39:04.170Z,28.93
2018-11-06T14:41:33.217Z,26.20
2018-11-06T14:44:02.097Z,26.17
2018-11-06T14:46:31.527Z,28.77
2018-11-06T14:49:00.666Z,23.20
2018-11-06T14:51:29.534Z,26.80
2018-11-06T14:53:58.285Z,27.57
2018-11-06T14:56:28.573Z,25.07
2018-11-06T14:58:58.657Z,25.80
2018-11-06T15:01:28.738Z,25.30
2018-11-06T15:03:58.626Z,27.43
2018-11-06T15:06:29.231Z,27.20
2018-11-06T15:08:59.073Z,26.30
2018-11-06T15:11:29.126Z,26.87
2018-11-06T15:14:03.238Z,27.97
2018-11-06T15:16:39.987Z,26.67
2018-11-06T15:19:18.383Z,28.53
2018-11-06T15:22:05.774Z,29.23
2018-11-06T15:24:35.715Z,29.13
2018-11-06T15:27:15.378Z,26.90
2018-11-06T15:29:56.445Z,25.63
2018-11-06T15:32:26.950Z,30.23
2018-11-06T15:35:12.027Z,25.17
2018-11-06T15:37:46.258Z,29.03
2018-11-06T15:40:22.234Z,31.33
2018-11-06T15:42:56.693Z,28.60
2018-11-06T15:45:33.631Z,26.03
2018-11-06T15:48:07.212Z,27.07
2018-11-06T15:50:50.372Z,27.17
2018-11-06T15:53:20.129Z,25.20
2018-11-06T15:55:49.952Z,26.97
2018-11-06T15:58:20.894Z,29.00
2018-11-06T16:00:52.992Z,28.90
2018-11-06T16:03:24.112Z,27.57
2018-11-06T16:05:56.872Z,30.03
2018-11-06T16:08:28.419Z,26.13
2018-11-06T16:10:59.191Z,31.93
2018-11-06T16:13:34.119Z,32.33
2018-11-06T16:16:05.134Z,34.03
2018-11-06T16:18:35.882Z,32.47
2018-11-06T16:21:06.642Z,31.37
2018-11-06T16:23:37.581Z,29.73
2018-11-06T16:26:08.134Z,31.13
2018-11-06T16:28:38.781Z,35.43
2018-11-06T16:31:11.686Z,37.53
2018-11-06T16:33:42.283Z,34.73
2018-11-06T16:36:17.668Z,41.90
2018-11-06T16:38:48.878Z,36.20
2018-11-06T16:41:19.906Z,36.23
2018-11-06T16:43:58.143Z,36.80
2018-11-06T16:46:41.204Z,41.10
2018-11-06T16:49:15.903Z,36.87
2018-11-06T16:51:57.192Z,34.10
2018-11-06T16:54:27.956Z,33.10
2018-11-06T16:56:59.080Z,32.97
2018-11-06T16:59:29.884Z,33.10
2018-11-06T17:02:08.802Z,33.67
2018-11-06T17:04:40.457Z,36.80
2018-11-06T17:07:11.342Z,35.63
2018-11-06T17:09:49.156Z,33.40
2018-11-06T17:12:21.816Z,35.77
2018-11-06T17:14:57.568Z,36.03
2018-11-06T17:17:30.697Z,33.97
2018-11-06T17:20:13.541Z,35.90
2018-11-06T17:22:47.685Z,39.57
2018-11-06T17:25:19.610Z,37.07
2018-11-06T17:28:00.324Z,37.97
2018-11-06T17:30:31.806Z,32.33
2018-11-06T17:33:02.641Z,37.73
2018-11-06T17:35:32.085Z,37.03
2018-11-06T17:38:12.505Z,33.13
2018-11-06T17:41:02.991Z,38.67
2018-11-06T17:43:38.309Z,43.33
2018-11-06T17:46:09.545Z,41.13
2018-11-06T17:48:46.049Z,37.70
2018-11-06T17:51:36.970Z,38.97
2018-11-06T17:54:13.755Z,43.53
2018-11-06T17:56:57.161Z,34.10
2018-11-06T17:59:36.116Z,37.43
2018-11-06T18:02:30.266Z,35.20
2018-11-06T18:05:23.526Z,37.90
2018-11-06T18:08:00.187Z,39.13
2018-11-06T18:10:31.957Z,40.63
2018-11-06T18:13:13.854Z,42.40
2018-11-06T18:16:01.487Z,39.70
2018-11-06T18:18:43.054Z,40.20
2018-11-06T18:21:26.524Z,46.33
2018-11-06T18:24:11.278Z,41.07
2018-11-06T18:26:56.503Z,38.83
2018-11-06T18:29:40.797Z,43.20
2018-11-06T18:32:40.955Z,42.20
2018-11-06T18:35:31.671Z,39.23
2018-11-06T18:38:25.252Z,37.73
2018-11-06T18:41:05.414Z,36.90
2018-11-06T18:43:51.092Z,39.13
2018-11-06T18:46:40.022Z,37.43
2018-11-06T18:49:36.010Z,38.53
2018-11-06T18:52:25.684Z,39.17
2018-11-06T18:55:17.342Z,38.97
2018-11-06T18:58:00.525Z,41.43
2018-11-06T19:00:31.430Z,44.90
2018-11-06T19:03:06.830Z,41.27
2018-11-06T19:05:36.034Z,39.53
2018-11-06T19:08:06.419Z,50.93
2018-11-06T19:10:35.249Z,46.57
2018-11-06T19:13:04.173Z,48.27
2018-11-06T19:15:33.104Z,50.57
2018-11-06T19:18:02.031Z,48.27
2018-11-06T19:20:30.876Z,40.33
2018-11-06T19:22:59.720Z,45.00
2018-11-06T19:25:28.913Z,42.57
2018-11-06T19:28:00.420Z,43.07
2018-11-06T19:30:29.617Z,39.43
2018-11-06T19:32:59.282Z,46.07
2018-11-06T19:35:28.884Z,52.17
2018-11-06T19:37:58.298Z,46.20
2018-11-06T19:40:27.447Z,41.90
2018-11-06T19:42:57.087Z,44.23
2018-11-06T19:45:26.665Z,45.73
2018-11-06T19:47:55.917Z,51.90
2018-11-06T19:50:24.727Z,45.47
2018-11-06T19:52:53.649Z,51.43
2018-11-06T19:55:22.500Z,47.00
2018-11-06T19:57:51.352Z,43.73
2018-11-06T20:00:21.613Z,43.17
2018-11-06T20:02:51.601Z,50.23
2018-11-06T20:05:21.029Z,48.50
2018-11-06T20:07:51.215Z,52.20
2018-11-06T20:10:21.626Z,47.73
2018-11-06T20:12:53.412Z,43.63
2018-11-06T20:15:22.968Z,45.00
2018-11-06T20:17:52.151Z,47.77
2018-11-06T20:20:24.228Z,45.00
2018-11-06T20:22:53.331Z,48.07
2018-11-06T20:25:22.239Z,49.30
2018-11-06T20:27:51.190Z,54.07
2018-11-06T20:30:21.409Z,46.07
2018-11-06T20:32:50.937Z,41.23
2018-11-06T20:35:19.927Z,51.03
2018-11-06T20:37:48.797Z,52.80
2018-11-06T20:40:19.278Z,51.17
2018-11-06T20:42:48.298Z,40.83
2018-11-06T20:45:18.250Z,44.13
2018-11-06T20:47:47.148Z,46.70
2018-11-06T20:50:19.331Z,47.17
2018-11-06T20:52:48.472Z,58.83
2018-11-06T20:55:18.222Z,53.37
2018-11-06T20:57:47.184Z,49.80
2018-11-06T21:00:22.270Z,48.60
2018-11-06T21:02:52.254Z,51.50
2018-11-06T21:05:21.157Z,46.77
2018-11-06T21:07:50.067Z,42.13
2018-11-06T21:10:20.234Z,44.37
2018-11-06T21:12:49.517Z,57.60
2018-11-06T21:15:18.414Z,65.07
2018-11-06T21:17:47.252Z,42.90
2018-11-06T21:20:16.906Z,42.20
2018-11-06T21:22:45.833Z,50.03
2018-11-06T21:25:14.887Z,52.53
2018-11-06T21:27:43.947Z,44.63
2018-11-06T21:30:14.837Z,46.47
2018-11-06T21:32:44.802Z,48.43
2018-11-06T21:35:13.675Z,49.97
2018-11-06T21:37:42.588Z,49.13
2018-11-06T21:40:13.898Z,47.43
2018-11-06T21:42:43.453Z,50.03
2018-11-06T21:45:13.208Z,56.43
2018-11-06T21:47:43.001Z,51.47
2018-11-06T21:50:12.801Z,52.83
2018-11-06T21:52:41.714Z,49.20
2018-11-06T21:55:12.002Z,57.37
2018-11-06T21:57:40.955Z,55.63
2018-11-06T22:00:13.342Z,49.53
2018-11-06T22:02:42.249Z,53.43
2018-11-06T22:05:12.585Z,46.53
2018-11-06T22:07:41.995Z,48.80
2018-11-06T22:10:13.075Z,53.33
2018-11-06T22:12:42.662Z,45.43
2018-11-06T22:15:12.608Z,45.07
2018-11-06T22:17:41.671Z,47.17
2018-11-06T22:20:12.227Z,56.67
2018-11-06T22:22:41.498Z,45.37
2018-11-06T22:25:10.378Z,55.13
2018-11-06T22:27:39.280Z,50.57
2018-11-06T22:30:10.121Z,54.80
2018-11-06T22:32:39.984Z,55.20
2018-11-06T22:35:10.230Z,50.90
2018-11-06T22:37:39.062Z,48.43
2018-11-06T22:40:08.692Z,51.50
2018-11-06T22:42:37.971Z,51.80
2018-11-06T22:45:08.652Z,51.77
2018-11-06T22:47:37.494Z,47.53
2018-11-06T22:50:07.848Z,50.83
2018-11-06T22:52:36.659Z,49.23
2018-11-06T22:55:05.812Z,54.20
2018-11-06T22:57:34.842Z,49.07
2018-11-06T23:00:03.882Z,62.07
2018-11-06T23:02:32.755Z,54.40
2018-11-06T23:05:01.588Z,57.33
2018-11-06T23:07:35.587Z,56.20
2018-11-06T23:10:04.648Z,67.93
2018-11-06T23:12:33.597Z,58.47
2018-11-06T23:15:02.433Z,60.73
2018-11-06T23:17:31.273Z,64.63
2018-11-06T23:20:00.066Z,56.63
2018-11-06T23:22:28.975Z,58.43
2018-11-06T23:24:57.815Z,57.23
2018-11-06T23:27:26.707Z,59.87
2018-11-06T23:29:55.538Z,62.80
2018-11-06T23:32:24.406Z,57.97
2018-11-06T23:34:53.595Z,52.27
2018-11-06T23:37:22.469Z,61.00
2018-11-06T23:39:51.420Z,51.77
2018-11-06T23:42:20.312Z,54.03
2018-11-06T23:44:49.183Z,55.23
2018-11-06T23:47:17.970Z,56.50
2018-11-06T23:49:46.851Z,56.97
2018-11-06T23:52:15.655Z,44.83
2018-11-06T23:54:44.509Z,64.97
2018-11-06T23:57:13.301Z,53.60
2018-11-06T23:59:42.159Z,60.60
